Time;durP1;ratioP1;P1;durP2;ratioP2;P2;SDS_P1;SDS_P2;PMS_P1;PMS_P2;Temp;Humidity;BMP_temperature;BMP_pressure;BME280_temperature;BME280_humidity;BME280_pressure;Samples;Min_cycle;Max_cycle;Signal;HPM_P1;HPM_P2
2022/11/24 05:03:53;;;;;;;1.48;0.73;;;8.80;99.90;;;;;;5994805;23;20350;-82
2022/11/24 05:06:19;;;;;;;1.55;1.10;;;8.70;99.90;;;;;;4895916;29;20226;-65
2022/11/24 05:08:49;;;;;;;2.25;0.95;;;8.70;99.90;;;;;;4898076;29;20278;-64
2022/11/24 05:11:15;;;;;;;1.23;1.05;;;8.60;99.90;;;;;;4897287;29;20193;-67
2022/11/24 05:13:41;;;;;;;1.17;0.90;;;8.60;99.90;;;;;;4894641;29;20217;-65
2022/11/24 05:16:07;;;;;;;2.70;1.13;;;8.50;99.90;;;;;;4879340;29;20528;-64
2022/11/24 05:18:33;;;;;;;3.97;1.30;;;8.40;99.90;;;;;;4879194;29;20904;-65
2022/11/24 05:20:59;;;;;;;2.93;1.07;;;8.40;99.90;;;;;;4878890;29;20320;-64
2022/11/24 05:23:25;;;;;;;1.15;1.05;;;8.30;99.90;;;;;;4878606;29;20179;-65
2022/11/24 05:25:51;;;;;;;2.22;1.55;;;8.20;99.90;;;;;;4882772;29;20178;-65
2022/11/24 05:28:17;;;;;;;3.00;0.90;;;8.20;99.90;;;;;;4882854;29;20179;-64
2022/11/24 05:30:43;;;;;;;0.70;0.70;;;8.10;99.90;;;;;;4882767;29;20542;-65
2022/11/24 05:33:17;;;;;;;2.60;1.20;;;8.00;99.90;;;;;;4881444;29;20207;-65
2022/11/24 05:35:44;;;;;;;1.63;0.77;;;8.00;99.90;;;;;;4881944;29;20426;-64
2022/11/24 05:38:10;;;;;;;0.90;0.90;;;7.90;99.90;;;;;;4882516;29;20253;-65
2022/11/24 05:40:36;;;;;;;0.60;0.60;;;7.80;99.90;;;;;;4882380;29;20176;-64
2022/11/24 05:43:02;;;;;;;5.53;1.15;;;7.80;99.90;;;;;;4882198;29;20183;-65
2022/11/24 05:45:27;;;;;;;4.13;1.17;;;7.80;99.90;;;;;;4881981;29;20196;-64
2022/11/24 05:47:53;;;;;;;1.70;0.93;;;7.80;99.90;;;;;;4882203;29;20184;-65
2022/11/24 05:50:20;;;;;;;6.03;1.87;;;7.80;99.90;;;;;;4882818;29;20175;-64
2022/11/24 05:52:46;;;;;;;1.08;1.08;;;7.90;99.90;;;;;;4881268;29;20214;-65
2022/11/24 05:55:13;;;;;;;1.53;1.00;;;7.90;99.90;;;;;;4881712;29;20213;-66
2022/11/24 05:57:39;;;;;;;0.82;0.75;;;7.90;99.90;;;;;;4880212;29;20427;-64
2022/11/24 06:00:07;;;;;;;2.65;0.90;;;7.90;99.90;;;;;;4880699;29;20177;-63
2022/11/24 06:02:32;;;;;;;1.45;0.98;;;7.90;99.90;;;;;;4880379;29;20190;-65
2022/11/24 06:04:58;;;;;;;3.60;1.80;;;7.90;99.90;;;;;;4881136;29;20225;-66
2022/11/24 06:07:23;;;;;;;1.57;0.80;;;7.90;99.90;;;;;;4881736;29;20523;-64
2022/11/24 06:09:49;;;;;;;0.60;0.60;;;7.90;99.90;;;;;;4881638;29;20170;-65
2022/11/24 06:12:15;;;;;;;1.00;0.77;;;7.80;99.90;;;;;;4880145;29;20722;-67
2022/11/24 06:14:41;;;;;;;1.30;1.13;;;7.80;99.90;;;;;;4881000;29;20199;-68
2022/11/24 06:17:08;;;;;;;0.80;0.77;;;7.80;99.90;;;;;;4881530;29;20167;-64
2022/11/24 06:19:34;;;;;;;2.83;1.65;;;7.90;99.90;;;;;;4881623;29;20416;-61
2022/11/24 06:21:59;;;;;;;1.60;1.10;;;7.90;99.90;;;;;;4880524;29;20201;-65
2022/11/24 06:24:25;;;;;;;3.63;0.63;;;8.00;99.90;;;;;;4881261;29;20199;-64
2022/11/24 06:26:51;;;;;;;3.93;1.10;;;8.00;99.90;;;;;;4881626;29;20179;-63
2022/11/24 06:29:16;;;;;;;0.63;0.57;;;8.00;99.90;;;;;;4881267;29;20206;-63
2022/11/24 06:31:42;;;;;;;0.80;0.70;;;8.00;99.90;;;;;;4881513;29;20270;-64
2022/11/24 06:34:10;;;;;;;0.80;0.70;;;8.00;99.90;;;;;;4881260;29;20215;-65
2022/11/24 06:36:37;;;;;;;3.20;1.50;;;8.00;99.90;;;;;;4880422;29;20223;-63
2022/11/24 06:39:04;;;;;;;2.28;1.25;;;7.90;99.90;;;;;;4881330;29;20288;-63
2022/11/24 06:41:29;;;;;;;1.23;1.17;;;7.90;99.90;;;;;;4880721;29;20187;-63
2022/11/24 06:43:55;;;;;;;1.90;0.80;;;7.90;99.90;;;;;;4879983;29;20563;-63
2022/11/24 06:46:21;;;;;;;2.10;1.13;;;7.90;99.90;;;;;;4880995;29;20182;-64
2022/11/24 06:48:49;;;;;;;1.77;1.48;;;8.00;99.90;;;;;;4881158;29;20186;-64
2022/11/24 06:51:17;;;;;;;2.85;1.20;;;8.00;99.90;;;;;;4881068;29;20224;-62
2022/11/24 06:53:43;;;;;;;3.20;0.90;;;8.00;99.90;;;;;;4880622;29;20207;-65
2022/11/24 06:56:11;;;;;;;1.08;0.90;;;8.10;99.90;;;;;;4880939;29;20235;-64
2022/11/24 06:58:41;;;;;;;4.47;1.75;;;8.20;99.90;;;;;;4879663;29;20714;-63
2022/11/24 07:01:07;;;;;;;1.05;1.02;;;8.30;99.90;;;;;;4880571;29;20288;-63
2022/11/24 07:03:33;;;;;;;3.70;1.70;;;8.40;99.90;;;;;;4881029;29;20186;-65
2022/11/24 07:05:58;;;;;;;0.83;0.83;;;8.40;99.90;;;;;;4880769;29;20202;-62
2022/11/24 07:08:24;;;;;;;1.50;1.00;;;8.50;99.90;;;;;;4879078;29;20612;-63
2022/11/24 07:10:51;;;;;;;1.67;0.90;;;8.60;99.90;;;;;;4874063;29;20256;-65
2022/11/24 07:13:18;;;;;;;1.35;0.88;;;8.70;99.90;;;;;;4877481;29;20218;-64
2022/11/24 07:15:43;;;;;;;1.95;0.98;;;8.70;99.90;;;;;;4863938;29;20215;-64
2022/11/24 07:18:09;;;;;;;2.53;1.23;;;8.70;99.90;;;;;;4880684;29;20171;-65
2022/11/24 07:20:35;;;;;;;2.20;1.00;;;8.70;99.90;;;;;;4880541;29;20189;-63
2022/11/24 07:23:00;;;;;;;4.50;1.10;;;8.80;99.90;;;;;;4880284;29;20175;-66
2022/11/24 07:25:27;;;;;;;1.33;0.83;;;8.80;99.90;;;;;;4880260;29;20567;-64
2022/11/24 07:27:59;;;;;;;1.23;1.02;;;8.70;99.90;;;;;;4880630;29;20188;-65
2022/11/24 07:30:26;;;;;;;2.78;2.35;;;8.70;99.90;;;;;;4880627;29;20271;-65
2022/11/24 07:32:58;;;;;;;5.38;2.15;;;8.70;99.90;;;;;;4880085;29;20220;-64
2022/11/24 07:35:23;;;;;;;1.63;1.02;;;8.60;99.90;;;;;;4880370;29;20246;-66
2022/11/24 07:37:49;;;;;;;0.93;0.90;;;8.60;99.90;;;;;;4880206;29;20182;-63
2022/11/24 07:40:15;;;;;;;2.00;0.90;;;8.50;99.90;;;;;;4879953;29;20198;-65
2022/11/24 07:42:40;;;;;;;3.07;1.97;;;8.50;99.90;;;;;;4879859;29;20183;-64
2022/11/24 07:45:06;;;;;;;1.73;1.60;;;8.40;99.90;;;;;;4880221;29;20448;-65
2022/11/24 07:47:32;;;;;;;1.17;1.17;;;8.40;99.90;;;;;;4880312;29;20179;-64
2022/11/24 07:49:57;;;;;;;1.63;1.13;;;8.40;99.90;;;;;;4878814;29;20239;-62
2022/11/24 07:52:25;;;;;;;4.43;2.20;;;8.40;99.90;;;;;;4879612;29;20199;-64
2022/11/24 07:54:51;;;;;;;1.60;1.50;;;8.30;99.90;;;;;;4879798;29;20235;-64
2022/11/24 07:57:16;;;;;;;3.33;1.50;;;8.30;99.90;;;;;;4878699;29;20601;-62
2022/11/24 07:59:42;;;;;;;1.70;1.10;;;8.30;99.90;;;;;;4879957;29;20773;-63
2022/11/24 08:02:10;;;;;;;1.40;1.30;;;8.30;99.90;;;;;;4879982;29;20180;-68
2022/11/24 08:04:36;;;;;;;1.67;0.93;;;8.30;99.90;;;;;;4879385;29;20676;-64
2022/11/24 08:07:02;;;;;;;2.00;1.40;;;8.40;99.90;;;;;;4879718;29;20198;-62
2022/11/24 08:09:27;;;;;;;3.00;2.10;;;8.30;99.90;;;;;;4878855;29;20689;-63
2022/11/24 08:11:53;;;;;;;3.43;1.70;;;8.30;99.90;;;;;;4877268;29;20218;-64
2022/11/24 08:14:18;;;;;;;2.13;1.60;;;8.30;99.90;;;;;;4879447;29;20195;-65
2022/11/24 08:16:44;;;;;;;2.73;1.63;;;8.30;99.90;;;;;;4879852;29;20179;-64
2022/11/24 08:19:10;;;;;;;2.43;1.30;;;8.30;99.90;;;;;;4881906;29;20631;-63
2022/11/24 08:21:36;;;;;;;2.45;1.45;;;8.30;99.90;;;;;;4884613;29;20187;-64
2022/11/24 08:24:02;;;;;;;0.93;0.93;;;8.40;99.90;;;;;;4881030;29;20616;-61
2022/11/24 08:26:28;;;;;;;1.00;1.00;;;8.40;99.90;;;;;;4879598;29;20443;-65
2022/11/24 08:28:56;;;;;;;1.40;1.20;;;8.40;99.90;;;;;;4883388;29;20649;-63
2022/11/24 08:31:23;;;;;;;1.10;1.00;;;8.50;99.90;;;;;;4879029;29;20195;-62
2022/11/24 08:33:49;;;;;;;1.17;0.98;;;8.50;99.90;;;;;;4878699;29;20235;-62
2022/11/24 08:36:17;;;;;;;1.70;1.33;;;8.60;99.90;;;;;;4878425;29;20198;-64
2022/11/24 08:38:43;;;;;;;1.10;1.00;;;8.60;99.90;;;;;;4882647;29;20246;-63
2022/11/24 08:41:12;;;;;;;4.93;1.55;;;8.60;99.90;;;;;;4878902;29;20235;-62
2022/11/24 08:43:37;;;;;;;1.40;1.10;;;8.70;99.90;;;;;;4893174;29;20190;-62
2022/11/24 08:46:09;;;;;;;1.80;0.90;;;8.70;99.90;;;;;;4897994;29;20539;-66
2022/11/24 08:48:35;;;;;;;1.48;1.00;;;8.70;99.90;;;;;;4880922;29;20398;-67
2022/11/24 08:51:12;;;;;;;1.23;1.13;;;8.70;99.90;;;;;;4879281;29;20274;-68
2022/11/24 08:53:39;;;;;;;1.58;1.30;;;8.80;99.90;;;;;;4878715;29;20354;-65
2022/11/24 08:56:06;;;;;;;3.60;2.53;;;8.80;99.90;;;;;;4879553;29;20175;-65
2022/11/24 08:58:32;;;;;;;1.90;1.15;;;8.80;99.90;;;;;;4878814;29;20258;-64
2022/11/24 09:01:12;;;;;;;2.90;1.83;;;8.80;99.90;;;;;;4883471;29;20262;-65
2022/11/24 09:03:39;;;;;;;2.10;1.40;;;8.90;99.90;;;;;;4881229;29;20443;-64
2022/11/24 09:06:06;;;;;;;1.13;1.05;;;8.90;99.90;;;;;;4882163;29;20199;-64
2022/11/24 09:08:33;;;;;;;3.25;0.93;;;8.90;99.90;;;;;;4881252;29;20529;-64
2022/11/24 09:11:07;;;;;;;4.00;0.93;;;9.00;99.90;;;;;;4881755;29;20207;-62
2022/11/24 09:13:33;;;;;;;3.55;1.75;;;9.00;99.90;;;;;;4880492;29;20202;-65
2022/11/24 09:16:09;;;;;;;1.65;1.20;;;9.00;99.90;;;;;;4881823;29;20179;-65
2022/11/24 09:18:35;;;;;;;1.90;1.80;;;9.10;99.90;;;;;;4880743;29;20171;-64
2022/11/24 09:21:08;;;;;;;2.20;1.73;;;9.10;99.90;;;;;;4881675;29;20180;-64
2022/11/24 09:23:33;;;;;;;3.42;2.47;;;9.20;99.90;;;;;;4881056;29;20179;-63
2022/11/24 09:26:04;;;;;;;1.30;1.20;;;9.30;99.90;;;;;;4881873;29;20545;-62
2022/11/24 09:28:30;;;;;;;1.38;1.25;;;9.40;99.90;;;;;;4880767;29;20187;-64
2022/11/24 09:31:03;;;;;;;1.03;1.00;;;9.60;99.90;;;;;;4881674;29;20231;-64
2022/11/24 09:33:30;;;;;;;4.65;1.40;;;9.60;99.90;;;;;;4881212;29;20207;-62
2022/11/24 09:35:56;;;;;;;2.17;0.80;;;9.70;99.90;;;;;;4881493;29;20184;-62
2022/11/24 09:38:22;;;;;;;1.50;0.87;;;9.80;99.90;;;;;;4880751;29;20241;-65
2022/11/24 09:40:48;;;;;;;4.37;2.60;;;9.90;99.90;;;;;;4880978;29;20434;-62
2022/11/24 09:43:22;;;;;;;0.85;0.85;;;9.90;99.90;;;;;;4880764;29;20206;-64
2022/11/24 09:46:29;;;;;;;2.05;0.60;;;9.90;99.90;;;;;;4881086;29;20252;-63
2022/11/24 09:48:57;;;;;;;1.23;1.13;;;9.90;99.90;;;;;;4824086;29;20197;-63
2022/11/24 09:51:27;;;;;;;0.80;0.80;;;9.80;99.90;;;;;;4870177;29;20184;-63
2022/11/24 09:54:05;;;;;;;1.98;1.67;;;9.80;99.90;;;;;;4880385;29;20207;-62
2022/11/24 09:56:34;;;;;;;1.30;1.20;;;9.80;99.90;;;;;;4880513;29;20180;-64
2022/11/24 09:59:05;;;;;;;1.15;0.80;;;9.80;99.90;;;;;;4881300;29;20175;-63
2022/11/24 10:01:40;;;;;;;2.17;0.70;;;9.80;99.90;;;;;;4881330;29;20172;-62
2022/11/24 10:04:23;;;;;;;0.68;0.65;;;9.80;99.90;;;;;;4880146;29;20194;-62
2022/11/24 10:07:05;;;;;;;0.90;0.43;;;9.80;99.90;;;;;;4846133;29;1064654;-64
2022/11/24 10:09:58;;;;;;;1.23;0.70;;;9.70;99.90;;;;;;4882005;29;20180;-64
2022/11/24 10:12:52;;;;;;;1.33;0.77;;;9.70;99.90;;;;;;4881234;29;20205;-63
2022/11/24 10:15:36;;;;;;;0.55;0.55;;;9.70;99.90;;;;;;4865338;29;20216;-63
2022/11/24 10:18:57;;;;;;;0.60;0.50;;;9.80;99.90;;;;;;4882026;29;20242;-64
2022/11/24 10:21:37;;;;;;;0.50;0.50;;;9.90;99.90;;;;;;4842119;29;20248;-62
2022/11/24 10:24:27;;;;;;;0.60;0.60;;;10.20;99.90;;;;;;4860327;29;20210;-63
2022/11/24 10:27:09;;;;;;;0.47;0.47;;;10.30;99.90;;;;;;4881162;29;20244;-65
2022/11/24 10:29:39;;;;;;;1.13;0.97;;;10.60;99.90;;;;;;4881529;29;20426;-65
2022/11/24 10:32:14;;;;;;;0.80;0.80;;;10.90;99.90;;;;;;4881621;29;20469;-64
2022/11/24 10:34:43;;;;;;;0.40;0.40;;;11.20;99.90;;;;;;4880909;29;20433;-63
2022/11/24 10:37:26;;;;;;;0.80;0.63;;;11.30;99.90;;;;;;4881414;29;20400;-62
2022/11/24 10:40:20;;;;;;;0.63;0.50;;;11.40;99.90;;;;;;4881632;29;20423;-63
2022/11/24 10:42:47;;;;;;;0.63;0.60;;;11.40;99.90;;;;;;4881295;29;20422;-64
2022/11/24 10:45:18;;;;;;;1.03;0.70;;;11.40;99.90;;;;;;4881457;29;20445;-62
2022/11/24 10:47:45;;;;;;;0.60;0.60;;;11.50;99.90;;;;;;4881111;29;20431;-63
2022/11/24 10:50:46;;;;;;;7.13;0.93;;;11.50;99.90;;;;;;4881479;29;20419;-63
2022/11/24 10:53:25;;;;;;;2.53;0.60;;;11.60;99.90;;;;;;4878949;29;20484;-62
2022/11/24 10:55:53;;;;;;;0.60;0.60;;;11.70;99.90;;;;;;4881222;29;20417;-62
2022/11/24 10:58:23;;;;;;;0.57;0.57;;;11.70;99.90;;;;;;4881287;29;20511;-64
2022/11/24 11:00:49;;;;;;;0.80;0.70;;;11.70;99.90;;;;;;4880349;29;20995;-64
2022/11/24 11:03:19;;;;;;;1.93;1.00;;;11.70;99.90;;;;;;4880888;29;20419;-64
2022/11/24 11:05:59;;;;;;;0.67;0.60;;;11.70;99.90;;;;;;4880531;29;20250;-64
2022/11/24 11:08:30;;;;;;;1.03;0.50;;;11.80;99.90;;;;;;4880676;29;20445;-63
2022/11/24 11:11:25;;;;;;;0.97;0.77;;;11.80;99.90;;;;;;4881086;29;20402;-65
2022/11/24 11:13:56;;;;;;;0.53;0.50;;;11.90;99.90;;;;;;4880357;29;20492;-65
2022/11/24 11:16:37;;;;;;;1.60;1.50;;;11.70;99.90;;;;;;4880728;29;20418;-64
2022/11/24 11:19:24;;;;;;;0.57;0.57;;;11.60;99.90;;;;;;4880529;29;20514;-64
2022/11/24 11:22:03;;;;;;;0.60;0.50;;;11.60;99.90;;;;;;4880229;29;20423;-63
2022/11/24 11:24:29;;;;;;;0.83;0.83;;;11.50;99.90;;;;;;4880065;29;20951;-62
2022/11/24 11:27:04;;;;;;;0.70;0.70;;;11.40;99.90;;;;;;4880464;29;20841;-64
2022/11/24 11:29:30;;;;;;;0.57;0.57;;;11.30;99.90;;;;;;4880099;29;20433;-64
2022/11/24 11:31:59;;;;;;;0.70;0.70;;;11.20;99.90;;;;;;4880428;29;20453;-64
2022/11/24 11:34:25;;;;;;;0.87;0.87;;;11.10;99.90;;;;;;4880018;29;20445;-65
2022/11/24 11:36:53;;;;;;;3.27;1.37;;;11.10;99.90;;;;;;4880429;29;20407;-64
2022/11/24 11:39:34;;;;;;;0.70;0.70;;;11.20;99.90;;;;;;4879666;29;20836;-63
2022/11/24 11:42:05;;;;;;;0.90;0.77;;;11.30;99.90;;;;;;4880244;29;20439;-63
2022/11/24 11:44:37;;;;;;;0.50;0.50;;;11.30;99.90;;;;;;4880069;29;20457;-65
2022/11/24 11:47:25;;;;;;;0.70;0.70;;;11.50;99.90;;;;;;4880417;29;20763;-63
2022/11/24 11:49:51;;;;;;;0.40;0.40;;;11.70;99.90;;;;;;4879913;29;20490;-62
2022/11/24 11:52:35;;;;;;;2.77;0.60;;;11.80;99.90;;;;;;4880000;29;20455;-64
2022/11/24 11:55:25;;;;;;;0.50;0.50;;;11.90;99.90;;;;;;4880334;29;20459;-62
2022/11/24 11:58:26;;;;;;;1.00;0.77;;;12.00;99.90;;;;;;4880383;29;20489;-62
2022/11/24 12:01:30;;;;;;;0.50;0.50;;;12.00;99.90;;;;;;4879432;29;20952;-63
2022/11/24 12:04:20;;;;;;;1.23;1.20;;;12.10;99.90;;;;;;4879728;29;20433;-63
2022/11/24 12:07:05;;;;;;;0.97;0.80;;;12.00;99.90;;;;;;4880412;29;21017;-62
2022/11/24 12:09:51;;;;;;;0.90;0.70;;;12.00;99.90;;;;;;4880150;29;20414;-63
2022/11/24 12:12:36;;;;;;;1.23;0.70;;;12.00;99.90;;;;;;4879960;29;20462;-63
2022/11/24 12:15:20;;;;;;;0.97;0.50;;;11.90;99.90;;;;;;4879564;29;20533;-64
2022/11/24 12:17:57;;;;;;;0.70;0.70;;;11.90;99.90;;;;;;4879750;29;20795;-63
2022/11/24 12:20:46;;;;;;;1.23;0.80;;;11.90;99.90;;;;;;4879582;29;20478;-63
2022/11/24 12:23:41;;;;;;;0.47;0.47;;;12.00;99.90;;;;;;4879455;29;20415;-64
2022/11/24 12:26:28;;;;;;;6.10;1.30;;;12.00;99.90;;;;;;4879459;29;20405;-63
2022/11/24 12:29:15;;;;;;;1.37;0.90;;;11.90;99.90;;;;;;4879756;29;21017;-62
2022/11/24 12:31:57;;;;;;;0.90;0.90;;;11.80;99.90;;;;;;4879589;29;20500;-64
2022/11/24 12:34:29;;;;;;;1.33;1.20;;;11.80;99.90;;;;;;4878826;29;20438;-63
2022/11/24 12:37:20;;;;;;;0.67;0.60;;;11.80;99.90;;;;;;4879898;29;20947;-64
2022/11/24 12:39:56;;;;;;;1.17;1.07;;;11.90;99.90;;;;;;4879330;29;20433;-64
2022/11/24 12:42:40;;;;;;;5.30;0.93;;;11.90;99.90;;;;;;4878816;29;20446;-64
2022/11/24 12:45:08;;;;;;;5.57;1.40;;;11.90;99.90;;;;;;4879445;29;20949;-64
2022/11/24 12:47:52;;;;;;;1.03;0.67;;;11.90;99.90;;;;;;4879526;29;20455;-63
2022/11/24 12:50:21;;;;;;;0.80;0.60;;;11.90;99.90;;;;;;4879425;29;20479;-63
2022/11/24 12:52:54;;;;;;;4.30;0.70;;;11.90;99.90;;;;;;4879197;29;21226;-64
2022/11/24 12:55:21;;;;;;;0.83;0.60;;;11.80;99.90;;;;;;4879083;29;20450;-62
2022/11/24 12:58:21;;;;;;;0.90;0.90;;;11.80;99.90;;;;;;4879658;29;20427;-63
2022/11/24 13:01:08;;;;;;;1.37;1.03;;;11.70;99.90;;;;;;4879282;29;20783;-65
2022/11/24 13:03:58;;;;;;;0.67;0.67;;;11.70;99.90;;;;;;4878575;29;20828;-65
2022/11/24 13:06:33;;;;;;;1.13;0.77;;;11.60;99.90;;;;;;4879382;29;20434;-64
2022/11/24 13:09:08;;;;;;;2.13;1.50;;;11.60;99.90;;;;;;4879393;29;20421;-63
2022/11/24 13:11:38;;;;;;;2.73;1.30;;;11.60;99.90;;;;;;4879023;29;20441;-65
2022/11/24 13:14:16;;;;;;;1.93;1.33;;;11.60;99.90;;;;;;4877695;29;20446;-63
2022/11/24 13:16:57;;;;;;;0.70;0.70;;;11.60;99.90;;;;;;4879035;29;20540;-66
2022/11/24 13:19:26;;;;;;;2.17;1.07;;;11.60;99.90;;;;;;4878828;29;20438;-65
2022/11/24 13:22:02;;;;;;;1.07;0.70;;;11.70;99.90;;;;;;4879595;29;20426;-62
2022/11/24 13:24:32;;;;;;;0.60;0.60;;;11.80;99.90;;;;;;4880513;29;20453;-64
2022/11/24 13:27:13;;;;;;;2.10;0.73;;;12.00;99.90;;;;;;4878621;29;20423;-65
2022/11/24 13:29:43;;;;;;;0.90;0.60;;;12.10;99.90;;;;;;4878927;29;20421;-64
2022/11/24 13:32:10;;;;;;;1.23;0.67;;;12.20;99.90;;;;;;4878333;29;20565;-63
2022/11/24 13:34:41;;;;;;;0.60;0.60;;;12.20;99.90;;;;;;4894613;29;20445;-63
2022/11/24 13:37:19;;;;;;;3.17;0.60;;;12.20;99.90;;;;;;4883674;29;20533;-64
2022/11/24 13:39:51;;;;;;;0.70;0.70;;;12.20;99.90;;;;;;4879047;29;20506;-65
2022/11/24 13:42:17;;;;;;;3.20;1.33;;;12.10;99.90;;;;;;4879138;29;20442;-63
2022/11/24 13:45:03;;;;;;;1.40;0.60;;;12.10;99.90;;;;;;4878525;29;20546;-62
2022/11/24 13:47:30;;;;;;;0.90;0.63;;;12.00;99.90;;;;;;4881978;29;20911;-63
2022/11/24 13:49:56;;;;;;;1.43;0.70;;;11.90;99.90;;;;;;4882414;29;20456;-64
2022/11/24 13:52:42;;;;;;;1.07;0.60;;;11.80;99.90;;;;;;4882543;29;20598;-64
2022/11/24 13:55:11;;;;;;;0.83;0.63;;;11.80;99.90;;;;;;4882827;29;20443;-62
2022/11/24 13:57:44;;;;;;;1.00;0.90;;;11.70;99.90;;;;;;4882804;29;20415;-63
2022/11/24 14:00:34;;;;;;;2.17;1.10;;;11.70;99.90;;;;;;4881270;29;20411;-63
2022/11/24 14:03:17;;;;;;;1.07;0.97;;;11.60;99.90;;;;;;4885894;29;20437;-63
2022/11/24 14:05:51;;;;;;;0.93;0.90;;;11.50;99.90;;;;;;4880859;29;20473;-64
2022/11/24 14:08:29;;;;;;;1.43;1.00;;;11.40;99.90;;;;;;4884732;29;20499;-63
2022/11/24 14:10:56;;;;;;;2.53;1.37;;;11.30;99.90;;;;;;4866802;29;20513;-62
2022/11/24 14:13:22;;;;;;;2.30;1.07;;;11.40;99.90;;;;;;4881545;29;20465;-64
2022/11/24 14:16:08;;;;;;;0.90;0.80;;;11.40;99.90;;;;;;4882251;29;20418;-62
2022/11/24 14:18:39;;;;;;;1.87;0.63;;;11.30;99.90;;;;;;4882255;29;20177;-64
2022/11/24 14:21:21;;;;;;;1.50;1.10;;;11.30;99.90;;;;;;4882394;29;20414;-65
2022/11/24 14:23:57;;;;;;;1.40;0.83;;;11.30;99.90;;;;;;4881299;29;20532;-64
2022/11/24 14:26:32;;;;;;;1.63;1.17;;;11.30;99.90;;;;;;4892589;29;20406;-65
2022/11/24 14:29:12;;;;;;;3.40;1.07;;;11.30;99.90;;;;;;4887743;29;20548;-65
2022/11/24 14:31:37;;;;;;;1.90;0.80;;;11.30;99.90;;;;;;4898446;29;20500;-62
2022/11/24 14:34:23;;;;;;;2.27;0.87;;;11.40;99.90;;;;;;4888649;29;20242;-66
2022/11/24 14:36:50;;;;;;;1.00;0.90;;;11.30;99.90;;;;;;4880883;29;20196;-64
2022/11/24 14:39:18;;;;;;;2.07;1.40;;;11.40;99.90;;;;;;4881007;29;20486;-62
2022/11/24 14:42:03;;;;;;;1.17;0.90;;;11.30;99.90;;;;;;4881461;29;20463;-63
2022/11/24 14:44:42;;;;;;;3.77;1.33;;;11.30;99.90;;;;;;4880916;29;20453;-64
2022/11/24 14:47:35;;;;;;;1.88;1.40;;;11.20;99.90;;;;;;4880958;29;20429;-63
2022/11/24 14:50:17;;;;;;;2.83;1.80;;;11.10;99.90;;;;;;4891741;29;20271;-64
2022/11/24 14:52:56;;;;;;;2.35;1.10;;;11.10;99.90;;;;;;4879926;29;20458;-62
2022/11/24 14:55:34;;;;;;;1.48;0.60;;;11.00;99.90;;;;;;4880883;29;20188;-64
2022/11/24 14:57:59;;;;;;;0.80;0.80;;;11.00;99.90;;;;;;4865046;29;20263;-62
2022/11/24 15:00:25;;;;;;;1.83;1.10;;;10.90;99.90;;;;;;4880376;29;20528;-63
2022/11/24 15:03:00;;;;;;;2.25;0.95;;;10.90;99.90;;;;;;4878970;29;20194;-62
2022/11/24 15:06:03;;;;;;;3.88;1.02;;;10.90;99.90;;;;;;4880582;29;20229;-64
2022/11/24 15:08:43;;;;;;;2.20;0.80;;;10.90;99.90;;;;;;4893558;29;20553;-62
2022/11/24 15:11:08;;;;;;;4.30;0.80;;;10.90;99.90;;;;;;4899730;29;20420;-63
2022/11/24 15:13:37;;;;;;;1.20;1.03;;;10.90;99.90;;;;;;4898829;29;20666;-62
2022/11/24 15:16:07;;;;;;;1.85;1.00;;;10.90;99.90;;;;;;4894647;29;20181;-63
2022/11/24 15:18:42;;;;;;;3.13;1.43;;;11.00;99.90;;;;;;4882663;29;20207;-62
2022/11/24 15:21:09;;;;;;;1.80;1.13;;;11.00;99.90;;;;;;4890479;29;20426;-63
2022/11/24 15:23:36;;;;;;;2.80;1.03;;;11.00;99.90;;;;;;4880251;29;20450;-63
2022/11/24 15:26:04;;;;;;;1.50;0.87;;;11.00;99.90;;;;;;4880751;29;20426;-64
2022/11/24 15:28:30;;;;;;;2.00;1.33;;;11.00;99.90;;;;;;4880446;29;20440;-62
2022/11/24 15:31:00;;;;;;;2.40;1.80;;;11.00;99.90;;;;;;4891988;29;20961;-63
2022/11/24 15:33:26;;;;;;;9.45;5.68;;;11.00;99.90;;;;;;4879697;29;20231;-62
2022/11/24 15:35:52;;;;;;;4.82;3.53;;;10.90;99.90;;;;;;4880666;29;20188;-64
2022/11/24 15:38:17;;;;;;;1.50;1.10;;;10.90;99.90;;;;;;4881231;29;20172;-64
2022/11/24 15:40:45;;;;;;;3.03;1.80;;;10.80;99.90;;;;;;4879830;29;20212;-63
2022/11/24 15:43:31;;;;;;;2.05;1.30;;;10.70;99.90;;;;;;4879667;29;20270;-64
2022/11/24 15:45:57;;;;;;;3.03;1.15;;;10.70;99.90;;;;;;4894925;29;20582;-62
2022/11/24 15:48:24;;;;;;;1.17;0.98;;;10.60;99.90;;;;;;4893651;29;20228;-63
2022/11/24 15:50:50;;;;;;;1.73;1.13;;;10.50;99.90;;;;;;4891352;29;20192;-62
2022/11/24 15:53:29;;;;;;;3.08;1.35;;;10.40;99.90;;;;;;4880136;29;20240;-62
2022/11/24 15:55:55;;;;;;;2.38;2.10;;;10.40;99.90;;;;;;4879864;29;20544;-62
2022/11/24 15:58:21;;;;;;;2.67;1.40;;;10.30;99.90;;;;;;4883386;29;20595;-64
2022/11/24 16:00:47;;;;;;;2.00;1.47;;;10.30;99.90;;;;;;4891573;29;20258;-63
2022/11/24 16:03:13;;;;;;;1.83;1.67;;;10.30;99.90;;;;;;4880622;29;20564;-61
2022/11/24 16:05:39;;;;;;;4.40;1.20;;;10.20;99.90;;;;;;4879861;29;20699;-64
2022/11/24 16:08:10;;;;;;;2.22;1.30;;;10.10;99.90;;;;;;4879382;29;20191;-62
2022/11/24 16:10:36;;;;;;;1.98;1.17;;;10.00;99.90;;;;;;4888061;29;20179;-62
2022/11/24 16:13:02;;;;;;;2.53;1.90;;;10.00;99.90;;;;;;4892768;29;20207;-64
2022/11/24 16:15:27;;;;;;;5.20;1.77;;;9.90;99.90;;;;;;4879664;29;20307;-65
2022/11/24 16:17:53;;;;;;;1.80;1.10;;;9.80;99.90;;;;;;4879931;29;20428;-62
2022/11/24 16:20:19;;;;;;;2.63;1.53;;;9.80;99.90;;;;;;4879729;29;20552;-63
2022/11/24 16:22:45;;;;;;;1.93;1.23;;;9.70;99.90;;;;;;4879870;29;20196;-63
2022/11/24 16:25:11;;;;;;;1.87;1.60;;;9.60;99.90;;;;;;4879538;29;20947;-64
2022/11/24 16:27:37;;;;;;;2.40;1.00;;;9.50;99.90;;;;;;4879689;29;20416;-62
2022/11/24 16:30:04;;;;;;;2.97;1.17;;;9.50;99.90;;;;;;4879524;29;20183;-63
2022/11/24 16:32:29;;;;;;;1.90;1.20;;;9.40;99.90;;;;;;4879318;29;20278;-64
2022/11/24 16:34:55;;;;;;;1.50;1.13;;;9.40;99.90;;;;;;4889243;29;20286;-64
2022/11/24 16:37:20;;;;;;;2.73;1.97;;;9.30;99.90;;;;;;4898197;29;20181;-61
2022/11/24 16:39:47;;;;;;;1.60;1.43;;;9.30;99.90;;;;;;4898371;29;20178;-63
2022/11/24 16:42:12;;;;;;;2.17;1.52;;;9.20;99.90;;;;;;4882498;29;20647;-66
2022/11/24 16:44:38;;;;;;;2.63;2.43;;;9.20;99.90;;;;;;4878532;29;20251;-62
2022/11/24 16:47:04;;;;;;;16.23;8.43;;;9.10;99.90;;;;;;4894335;29;20209;-64
2022/11/24 16:49:29;;;;;;;2.30;2.10;;;9.10;99.90;;;;;;4898256;29;20186;-66
2022/11/24 16:51:55;;;;;;;2.97;1.30;;;9.00;99.90;;;;;;4898127;29;20632;-64
2022/11/24 16:54:20;;;;;;;1.53;1.07;;;8.90;99.90;;;;;;4880030;29;20203;-63
2022/11/24 16:56:46;;;;;;;1.50;1.40;;;8.80;99.90;;;;;;4879640;29;20171;-64
2022/11/24 16:59:12;;;;;;;1.20;1.10;;;8.80;99.90;;;;;;4879055;29;20251;-66
2022/11/24 17:01:39;;;;;;;1.40;1.30;;;8.80;99.90;;;;;;4878924;29;20207;-65
2022/11/24 17:04:05;;;;;;;4.55;1.38;;;8.70;99.90;;;;;;4878856;29;20199;-65
2022/11/24 17:06:32;;;;;;;2.17;1.58;;;8.60;99.90;;;;;;4879185;29;20227;-63
2022/11/24 17:08:58;;;;;;;10.55;1.88;;;8.60;99.90;;;;;;4880743;29;20274;-64
2022/11/24 17:11:26;;;;;;;3.42;1.20;;;8.50;99.90;;;;;;4893597;29;20184;-63
2022/11/24 17:13:52;;;;;;;2.55;1.65;;;8.40;99.90;;;;;;4873976;29;20214;-63
2022/11/24 17:16:20;;;;;;;2.00;1.90;;;8.40;99.90;;;;;;4879326;29;20223;-62
2022/11/24 17:18:46;;;;;;;1.95;1.40;;;8.30;99.90;;;;;;4879061;29;20175;-64
2022/11/24 17:21:23;;;;;;;1.73;1.57;;;8.10;99.90;;;;;;4885403;29;20250;-67
2022/11/24 17:23:56;;;;;;;2.10;1.90;;;8.10;99.90;;;;;;4888076;29;20631;-67
2022/11/24 17:26:22;;;;;;;1.70;1.25;;;8.00;99.90;;;;;;4882971;29;20188;-65
2022/11/24 17:28:48;;;;;;;2.35;1.25;;;7.90;99.90;;;;;;4883553;29;20662;-65
2022/11/24 17:31:20;;;;;;;2.43;1.10;;;7.90;99.90;;;;;;4886657;29;20195;-67
2022/11/24 17:33:46;;;;;;;1.55;1.45;;;7.80;99.90;;;;;;4881869;29;20302;-66
2022/11/24 17:36:11;;;;;;;1.10;1.10;;;7.80;99.90;;;;;;4882370;29;20211;-67
2022/11/24 17:38:37;;;;;;;2.40;2.20;;;7.70;99.90;;;;;;4882008;29;20184;-67
2022/11/24 17:41:03;;;;;;;1.63;1.37;;;7.70;99.90;;;;;;4882659;29;20174;-67
2022/11/24 17:43:28;;;;;;;2.40;1.60;;;7.60;99.90;;;;;;4882128;29;20643;-65
2022/11/24 17:45:56;;;;;;;5.20;1.70;;;7.60;99.90;;;;;;4882196;29;20753;-65
2022/11/24 17:48:21;;;;;;;2.78;1.75;;;7.60;99.90;;;;;;4881703;29;20544;-67
2022/11/24 17:50:47;;;;;;;2.37;1.70;;;7.50;99.90;;;;;;4890898;29;20182;-65
2022/11/24 17:53:13;;;;;;;2.55;1.90;;;7.50;99.90;;;;;;4897007;29;20469;-67
2022/11/24 17:55:39;;;;;;;2.77;2.53;;;7.50;99.90;;;;;;4882512;29;20203;-68
2022/11/24 17:58:05;;;;;;;2.97;2.67;;;7.50;99.90;;;;;;4882235;29;20423;-68
2022/11/24 18:00:31;;;;;;;8.03;2.70;;;7.40;99.90;;;;;;4882220;29;20418;-66
2022/11/24 18:02:56;;;;;;;2.50;2.20;;;7.40;99.90;;;;;;4892460;29;20567;-68
2022/11/24 18:05:22;;;;;;;2.67;1.77;;;7.40;99.90;;;;;;4892311;29;20552;-67
2022/11/24 18:07:48;;;;;;;2.17;1.63;;;7.40;99.90;;;;;;4881897;29;20239;-66
2022/11/24 18:10:14;;;;;;;4.10;2.27;;;7.40;99.90;;;;;;4881686;29;20458;-67
2022/11/24 18:12:39;;;;;;;5.03;1.80;;;7.40;99.90;;;;;;4894107;29;20659;-64
2022/11/24 18:15:05;;;;;;;3.43;3.23;;;7.30;99.90;;;;;;4900666;29;20205;-67
2022/11/24 18:17:31;;;;;;;4.00;3.05;;;7.30;99.90;;;;;;4900420;29;20174;-67